Wakita, Oklahoma
Current Conditions -  °F | °C
As of 6:35 AM on Friday 24 Oct 2014 (Local Time) from KBKN Reporting Station
Clear Clear  
Wind Chill: 57°   Ceiling: Unl
Heat Index: 57°   Visibility: 7mi
Dew Point: 55°   Wind: 3mph
Humidity: 94%   Direction: 140°SE
Pressure: 30.06"   Gusts: NA
Location:  36.88°N, 97.92°W
Report Text: KBKN 241135Z AUTO 14003KT 7SM CLR 14/13 A3006 RMK AO2
Loading
Personal Weather Stations






























Interactive Weather Map
Tropical Storm Tracking
New forecast layout! Learn more

10-Day Weather Forecast

Advertisements
Track Severe Weather on mobile